sensor_id;sensor_type;location;lat;lon;timestamp;temperature;humidity
72604;DHT22;60645;56.968;24.196;2024-01-15T00:00:11;-0.70;99.90
72604;DHT22;60645;56.968;24.196;2024-01-15T00:02:38;-0.60;99.90
72604;DHT22;60645;56.968;24.196;2024-01-15T00:05:05;-0.70;99.90
72604;DHT22;60645;56.968;24.196;2024-01-15T00:07:32;-0.60;99.90
72604;DHT22;60645;56.968;24.196;2024-01-15T00:09:58;-0.60;99.90
72604;DHT22;60645;56.968;24.196;2024-01-15T00:12:25;-0.60;99.90
72604;DHT22;60645;56.968;24.196;2024-01-15T00:14:53;-0.40;99.90
72604;DHT22;60645;56.968;24.196;2024-01-15T00:17:19;-0.60;99.90
72604;DHT22;60645;56.968;24.196;2024-01-15T00:19:46;-0.40;99.90
72604;DHT22;60645;56.968;24.196;2024-01-15T00:22:13;-0.60;99.90
72604;DHT22;60645;56.968;24.196;2024-01-15T00:24:40;-0.60;99.90
72604;DHT22;60645;56.968;24.196;2024-01-15T00:27:07;-0.60;99.90
72604;DHT22;60645;56.968;24.196;2024-01-15T00:29:34;-0.50;99.90
72604;DHT22;60645;56.968;24.196;2024-01-15T00:32:01;-0.30;99.90
72604;DHT22;60645;56.968;24.196;2024-01-15T00:34:28;-0.50;99.90
72604;DHT22;60645;56.968;24.196;2024-01-15T00:36:55;-0.50;99.90
72604;DHT22;60645;56.968;24.196;2024-01-15T00:39:22;-0.60;99.90
72604;DHT22;60645;56.968;24.196;2024-01-15T00:41:48;-0.40;99.90
72604;DHT22;60645;56.968;24.196;2024-01-15T00:44:15;-0.60;99.90
72604;DHT22;60645;56.968;24.196;2024-01-15T00:46:45;-0.50;99.90
72604;DHT22;60645;56.968;24.196;2024-01-15T00:49:13;-0.60;99.90
72604;DHT22;60645;56.968;24.196;2024-01-15T00:51:40;-0.50;99.90
72604;DHT22;60645;56.968;24.196;2024-01-15T00:54:07;-0.50;99.90
72604;DHT22;60645;56.968;24.196;2024-01-15T00:56:34;-0.50;99.90
72604;DHT22;60645;56.968;24.196;2024-01-15T00:59:01;-0.30;99.90
72604;DHT22;60645;56.968;24.196;2024-01-15T01:01:29;-0.60;99.90
72604;DHT22;60645;56.968;24.196;2024-01-15T01:03:56;-0.40;99.90
72604;DHT22;60645;56.968;24.196;2024-01-15T01:06:23;-0.50;99.90
72604;DHT22;60645;56.968;24.196;2024-01-15T01:08:50;-0.30;99.90
72604;DHT22;60645;56.968;24.196;2024-01-15T01:11:17;-0.40;99.90
72604;DHT22;60645;56.968;24.196;2024-01-15T01:13:44;-0.40;99.90
72604;DHT22;60645;56.968;24.196;2024-01-15T01:16:11;-0.40;99.90
72604;DHT22;60645;56.968;24.196;2024-01-15T01:18:37;-0.50;99.90
72604;DHT22;60645;56.968;24.196;2024-01-15T01:21:05;-0.30;99.90
72604;DHT22;60645;56.968;24.196;2024-01-15T01:23:31;-0.40;99.90
72604;DHT22;60645;56.968;24.196;2024-01-15T01:25:58;-0.40;99.90
72604;DHT22;60645;56.968;24.196;2024-01-15T01:28:25;-0.40;99.90
72604;DHT22;60645;56.968;24.196;2024-01-15T01:30:52;-0.30;99.90
72604;DHT22;60645;56.968;24.196;2024-01-15T01:33:19;-0.40;99.90
72604;DHT22;60645;56.968;24.196;2024-01-15T01:35:46;-0.30;99.90
72604;DHT22;60645;56.968;24.196;2024-01-15T01:38:14;-0.30;99.90
72604;DHT22;60645;56.968;24.196;2024-01-15T01:40:40;-0.40;99.90
72604;DHT22;60645;56.968;24.196;2024-01-15T01:43:08;-0.30;99.90
72604;DHT22;60645;56.968;24.196;2024-01-15T01:45:35;-0.50;99.90
72604;DHT22;60645;56.968;24.196;2024-01-15T01:48:02;-0.40;99.90
72604;DHT22;60645;56.968;24.196;2024-01-15T01:50:30;-0.40;99.90
72604;DHT22;60645;56.968;24.196;2024-01-15T01:52:58;-0.30;99.90
72604;DHT22;60645;56.968;24.196;2024-01-15T01:55:26;-0.40;99.90
72604;DHT22;60645;56.968;24.196;2024-01-15T01:57:53;-0.40;99.90
72604;DHT22;60645;56.968;24.196;2024-01-15T02:00:21;-0.50;99.90
72604;DHT22;60645;56.968;24.196;2024-01-15T02:02:48;-0.60;99.90
72604;DHT22;60645;56.968;24.196;2024-01-15T02:05:16;-0.30;99.90
72604;DHT22;60645;56.968;24.196;2024-01-15T02:07:44;-0.30;99.90
72604;DHT22;60645;56.968;24.196;2024-01-15T02:10:11;-0.40;99.90
72604;DHT22;60645;56.968;24.196;2024-01-15T02:12:38;-0.60;99.90
72604;DHT22;60645;56.968;24.196;2024-01-15T02:15:05;-0.40;99.90
72604;DHT22;60645;56.968;24.196;2024-01-15T02:17:32;-0.50;99.90
72604;DHT22;60645;56.968;24.196;2024-01-15T02:19:59;-0.60;99.90
72604;DHT22;60645;56.968;24.196;2024-01-15T02:22:26;-0.50;99.90
72604;DHT22;60645;56.968;24.196;2024-01-15T02:24:53;-0.70;99.90
72604;DHT22;60645;56.968;24.196;2024-01-15T02:27:20;-0.60;99.90
72604;DHT22;60645;56.968;24.196;2024-01-15T02:29:47;-0.60;99.90
72604;DHT22;60645;56.968;24.196;2024-01-15T02:32:14;-0.60;99.90
72604;DHT22;60645;56.968;24.196;2024-01-15T02:34:41;-0.80;99.90
72604;DHT22;60645;56.968;24.196;2024-01-15T02:37:08;-0.80;99.90
72604;DHT22;60645;56.968;24.196;2024-01-15T02:39:34;-0.90;99.90
72604;DHT22;60645;56.968;24.196;2024-01-15T02:42:01;-0.80;99.90
72604;DHT22;60645;56.968;24.196;2024-01-15T02:44:28;-0.90;99.90
72604;DHT22;60645;56.968;24.196;2024-01-15T02:46:55;-0.80;99.90
72604;DHT22;60645;56.968;24.196;2024-01-15T02:49:21;-0.80;99.90
72604;DHT22;60645;56.968;24.196;2024-01-15T02:51:49;-0.70;99.90
72604;DHT22;60645;56.968;24.196;2024-01-15T02:54:16;-0.90;99.90
72604;DHT22;60645;56.968;24.196;2024-01-15T02:56:42;-0.80;99.90
72604;DHT22;60645;56.968;24.196;2024-01-15T02:59:09;-0.60;99.90
72604;DHT22;60645;56.968;24.196;2024-01-15T03:01:36;-0.60;99.90
72604;DHT22;60645;56.968;24.196;2024-01-15T03:04:03;-0.50;99.90
72604;DHT22;60645;56.968;24.196;2024-01-15T03:06:30;-0.50;99.90
72604;DHT22;60645;56.968;24.196;2024-01-15T03:08:57;-0.40;99.90
72604;DHT22;60645;56.968;24.196;2024-01-15T03:11:23;-0.50;99.90
72604;DHT22;60645;56.968;24.196;2024-01-15T03:13:50;-0.50;99.90
72604;DHT22;60645;56.968;24.196;2024-01-15T03:16:17;-0.60;99.90
72604;DHT22;60645;56.968;24.196;2024-01-15T03:18:46;-0.50;99.90
72604;DHT22;60645;56.968;24.196;2024-01-15T03:21:13;-0.50;99.90
72604;DHT22;60645;56.968;24.196;2024-01-15T03:23:40;-0.30;99.90
72604;DHT22;60645;56.968;24.196;2024-01-15T03:26:06;-0.50;99.90
72604;DHT22;60645;56.968;24.196;2024-01-15T03:28:33;-0.40;99.90
72604;DHT22;60645;56.968;24.196;2024-01-15T03:31:00;-0.50;99.90
72604;DHT22;60645;56.968;24.196;2024-01-15T03:33:27;-0.50;99.90
72604;DHT22;60645;56.968;24.196;2024-01-15T03:35:54;-0.60;99.90
72604;DHT22;60645;56.968;24.196;2024-01-15T03:38:20;-0.50;99.90
72604;DHT22;60645;56.968;24.196;2024-01-15T03:40:47;-0.60;99.90
72604;DHT22;60645;56.968;24.196;2024-01-15T03:43:14;-0.60;99.90
72604;DHT22;60645;56.968;24.196;2024-01-15T03:45:41;-0.40;99.90
72604;DHT22;60645;56.968;24.196;2024-01-15T03:48:08;-0.50;99.90
72604;DHT22;60645;56.968;24.196;2024-01-15T03:50:35;-0.70;99.90
72604;DHT22;60645;56.968;24.196;2024-01-15T03:53:02;-0.70;99.90
72604;DHT22;60645;56.968;24.196;2024-01-15T03:55:29;-0.70;99.90
72604;DHT22;60645;56.968;24.196;2024-01-15T03:57:56;-0.80;99.90
72604;DHT22;60645;56.968;24.196;2024-01-15T04:00:22;-0.60;99.90
72604;DHT22;60645;56.968;24.196;2024-01-15T04:02:49;-0.80;99.90
72604;DHT22;60645;56.968;24.196;2024-01-15T04:05:16;-0.60;99.90
72604;DHT22;60645;56.968;24.196;2024-01-15T04:07:43;-0.50;99.90
72604;DHT22;60645;56.968;24.196;2024-01-15T04:10:10;-0.70;99.90
72604;DHT22;60645;56.968;24.196;2024-01-15T04:12:37;-0.70;99.90
72604;DHT22;60645;56.968;24.196;2024-01-15T04:15:04;-1.00;99.90
72604;DHT22;60645;56.968;24.196;2024-01-15T04:17:31;-1.00;99.90
72604;DHT22;60645;56.968;24.196;2024-01-15T04:19:58;-0.90;99.90
72604;DHT22;60645;56.968;24.196;2024-01-15T04:22:25;-1.10;99.90
72604;DHT22;60645;56.968;24.196;2024-01-15T04:24:52;-0.80;99.90
72604;DHT22;60645;56.968;24.196;2024-01-15T04:27:19;-0.90;99.90
72604;DHT22;60645;56.968;24.196;2024-01-15T04:29:45;-1.10;99.90
72604;DHT22;60645;56.968;24.196;2024-01-15T04:32:12;-1.00;99.90
72604;DHT22;60645;56.968;24.196;2024-01-15T04:34:39;-1.00;99.90
72604;DHT22;60645;56.968;24.196;2024-01-15T04:37:06;-1.10;99.90
72604;DHT22;60645;56.968;24.196;2024-01-15T04:39:33;-1.10;99.90
72604;DHT22;60645;56.968;24.196;2024-01-15T04:42:00;-1.10;99.90
72604;DHT22;60645;56.968;24.196;2024-01-15T04:44:27;-1.10;99.90
72604;DHT22;60645;56.968;24.196;2024-01-15T04:46:54;-0.90;99.90
72604;DHT22;60645;56.968;24.196;2024-01-15T04:49:20;-1.00;99.90
72604;DHT22;60645;56.968;24.196;2024-01-15T04:51:47;-1.00;99.90
72604;DHT22;60645;56.968;24.196;2024-01-15T04:54:14;-0.90;99.90
72604;DHT22;60645;56.968;24.196;2024-01-15T04:56:44;-0.60;99.90
72604;DHT22;60645;56.968;24.196;2024-01-15T04:59:11;-1.00;99.90
72604;DHT22;60645;56.968;24.196;2024-01-15T05:01:38;-1.00;99.90
72604;DHT22;60645;56.968;24.196;2024-01-15T05:04:05;-0.90;99.90
72604;DHT22;60645;56.968;24.196;2024-01-15T05:06:32;-0.70;99.90
72604;DHT22;60645;56.968;24.196;2024-01-15T05:08:59;-0.80;99.90
72604;DHT22;60645;56.968;24.196;2024-01-15T05:11:26;-0.80;99.90
72604;DHT22;60645;56.968;24.196;2024-01-15T05:13:52;-0.70;99.90
72604;DHT22;60645;56.968;24.196;2024-01-15T05:16:19;-0.80;99.90
72604;DHT22;60645;56.968;24.196;2024-01-15T05:18:46;-0.60;99.90
72604;DHT22;60645;56.968;24.196;2024-01-15T05:21:13;-0.60;99.90
72604;DHT22;60645;56.968;24.196;2024-01-15T05:23:40;-0.60;99.90
72604;DHT22;60645;56.968;24.196;2024-01-15T05:26:07;-0.70;99.90
72604;DHT22;60645;56.968;24.196;2024-01-15T05:28:35;-0.70;99.90
72604;DHT22;60645;56.968;24.196;2024-01-15T05:31:02;-0.60;99.90
72604;DHT22;60645;56.968;24.196;2024-01-15T05:33:29;-0.60;99.90
72604;DHT22;60645;56.968;24.196;2024-01-15T05:35:56;-0.80;99.90
72604;DHT22;60645;56.968;24.196;2024-01-15T05:38:25;-0.80;99.90
72604;DHT22;60645;56.968;24.196;2024-01-15T05:40:52;-0.70;99.90
72604;DHT22;60645;56.968;24.196;2024-01-15T05:43:19;-0.70;99.90
72604;DHT22;60645;56.968;24.196;2024-01-15T05:45:45;-0.90;99.90
72604;DHT22;60645;56.968;24.196;2024-01-15T05:48:12;-0.80;99.90
72604;DHT22;60645;56.968;24.196;2024-01-15T05:50:39;-0.80;99.90
72604;DHT22;60645;56.968;24.196;2024-01-15T05:53:06;-0.70;99.90
72604;DHT22;60645;56.968;24.196;2024-01-15T05:55:34;-0.80;99.90
72604;DHT22;60645;56.968;24.196;2024-01-15T05:58:01;-0.70;99.90
72604;DHT22;60645;56.968;24.196;2024-01-15T06:00:28;-0.80;99.90
72604;DHT22;60645;56.968;24.196;2024-01-15T06:02:56;-0.70;99.90
72604;DHT22;60645;56.968;24.196;2024-01-15T06:05:23;-0.80;99.90
72604;DHT22;60645;56.968;24.196;2024-01-15T06:07:50;-0.90;99.90
72604;DHT22;60645;56.968;24.196;2024-01-15T06:10:17;-1.00;99.90
72604;DHT22;60645;56.968;24.196;2024-01-15T06:12:43;-0.70;99.90
72604;DHT22;60645;56.968;24.196;2024-01-15T06:15:10;-0.90;99.90
72604;DHT22;60645;56.968;24.196;2024-01-15T06:17:37;-0.60;99.90
72604;DHT22;60645;56.968;24.196;2024-01-15T06:20:04;-0.90;99.90
72604;DHT22;60645;56.968;24.196;2024-01-15T06:22:31;-0.80;99.90
72604;DHT22;60645;56.968;24.196;2024-01-15T06:24:58;-0.90;99.90
72604;DHT22;60645;56.968;24.196;2024-01-15T06:27:25;-0.80;99.90
72604;DHT22;60645;56.968;24.196;2024-01-15T06:29:52;-0.70;99.90
72604;DHT22;60645;56.968;24.196;2024-01-15T06:32:19;-0.60;99.90
72604;DHT22;60645;56.968;24.196;2024-01-15T06:34:46;-0.70;99.90
72604;DHT22;60645;56.968;24.196;2024-01-15T06:37:13;-0.60;99.90
72604;DHT22;60645;56.968;24.196;2024-01-15T06:39:40;-0.80;99.90
72604;DHT22;60645;56.968;24.196;2024-01-15T06:42:07;-0.80;99.90
72604;DHT22;60645;56.968;24.196;2024-01-15T06:44:33;-0.80;99.90
72604;DHT22;60645;56.968;24.196;2024-01-15T06:47:01;-0.70;99.90
72604;DHT22;60645;56.968;24.196;2024-01-15T06:49:29;-0.70;99.90
72604;DHT22;60645;56.968;24.196;2024-01-15T06:51:56;-0.60;99.90
72604;DHT22;60645;56.968;24.196;2024-01-15T06:54:23;-0.80;99.90
72604;DHT22;60645;56.968;24.196;2024-01-15T06:56:50;-0.70;99.90
72604;DHT22;60645;56.968;24.196;2024-01-15T06:59:17;-0.60;99.90
72604;DHT22;60645;56.968;24.196;2024-01-15T07:01:46;-0.80;99.90
72604;DHT22;60645;56.968;24.196;2024-01-15T07:04:13;-0.50;99.90
72604;DHT22;60645;56.968;24.196;2024-01-15T07:06:40;-0.70;99.90
72604;DHT22;60645;56.968;24.196;2024-01-15T07:09:07;-0.60;99.90
72604;DHT22;60645;56.968;24.196;2024-01-15T07:11:35;-0.70;99.90
72604;DHT22;60645;56.968;24.196;2024-01-15T07:14:02;-0.60;99.90
72604;DHT22;60645;56.968;24.196;2024-01-15T07:16:29;-0.40;99.90
72604;DHT22;60645;56.968;24.196;2024-01-15T07:19:04;-0.60;99.90
72604;DHT22;60645;56.968;24.196;2024-01-15T07:21:31;-0.60;99.90
72604;DHT22;60645;56.968;24.196;2024-01-15T07:23:58;-0.50;99.90
72604;DHT22;60645;56.968;24.196;2024-01-15T07:26:25;-0.40;99.90
72604;DHT22;60645;56.968;24.196;2024-01-15T07:28:52;-0.60;99.90
72604;DHT22;60645;56.968;24.196;2024-01-15T07:31:19;-0.50;99.90
72604;DHT22;60645;56.968;24.196;2024-01-15T07:33:46;-0.60;99.90
72604;DHT22;60645;56.968;24.196;2024-01-15T07:36:13;-0.50;99.90
72604;DHT22;60645;56.968;24.196;2024-01-15T07:38:40;-0.50;99.90
72604;DHT22;60645;56.968;24.196;2024-01-15T07:41:07;-0.60;99.90
72604;DHT22;60645;56.968;24.196;2024-01-15T07:43:34;-0.40;99.90
72604;DHT22;60645;56.968;24.196;2024-01-15T07:46:01;-0.60;99.90
72604;DHT22;60645;56.968;24.196;2024-01-15T07:48:29;-0.40;99.90
72604;DHT22;60645;56.968;24.196;2024-01-15T07:50:56;-0.30;99.90
72604;DHT22;60645;56.968;24.196;2024-01-15T07:53:23;-0.50;99.90
72604;DHT22;60645;56.968;24.196;2024-01-15T07:55:50;-0.40;99.90
72604;DHT22;60645;56.968;24.196;2024-01-15T07:58:17;-0.40;99.90
72604;DHT22;60645;56.968;24.196;2024-01-15T08:00:44;-0.40;99.90
72604;DHT22;60645;56.968;24.196;2024-01-15T08:03:12;-0.50;99.90
72604;DHT22;60645;56.968;24.196;2024-01-15T08:05:40;-0.30;99.90
72604;DHT22;60645;56.968;24.196;2024-01-15T08:08:06;-0.30;99.90
72604;DHT22;60645;56.968;24.196;2024-01-15T08:10:33;-0.10;99.90
72604;DHT22;60645;56.968;24.196;2024-01-15T08:13:00;-0.30;99.90
72604;DHT22;60645;56.968;24.196;2024-01-15T08:15:27;-0.30;99.90
72604;DHT22;60645;56.968;24.196;2024-01-15T08:17:57;-0.40;99.90
72604;DHT22;60645;56.968;24.196;2024-01-15T08:20:25;-0.30;99.90
72604;DHT22;60645;56.968;24.196;2024-01-15T08:22:52;-0.10;99.90
72604;DHT22;60645;56.968;24.196;2024-01-15T08:25:19;-0.10;99.90
72604;DHT22;60645;56.968;24.196;2024-01-15T08:27:46;-0.10;99.90
72604;DHT22;60645;56.968;24.196;2024-01-15T08:30:13;-0.20;99.90
72604;DHT22;60645;56.968;24.196;2024-01-15T08:32:40;-0.10;99.90
72604;DHT22;60645;56.968;24.196;2024-01-15T08:35:10;-0.10;99.90
72604;DHT22;60645;56.968;24.196;2024-01-15T08:37:38;0.20;99.90
72604;DHT22;60645;56.968;24.196;2024-01-15T08:40:05;0.00;99.90
72604;DHT22;60645;56.968;24.196;2024-01-15T08:42:32;0.00;99.90
72604;DHT22;60645;56.968;24.196;2024-01-15T08:44:59;0.10;99.90
72604;DHT22;60645;56.968;24.196;2024-01-15T08:47:25;0.00;99.90
72604;DHT22;60645;56.968;24.196;2024-01-15T08:49:53;0.00;99.90
72604;DHT22;60645;56.968;24.196;2024-01-15T08:52:20;0.10;99.90
72604;DHT22;60645;56.968;24.196;2024-01-15T08:54:47;0.10;99.90
72604;DHT22;60645;56.968;24.196;2024-01-15T08:57:15;0.10;99.90
72604;DHT22;60645;56.968;24.196;2024-01-15T08:59:42;0.20;99.90
72604;DHT22;60645;56.968;24.196;2024-01-15T09:02:09;0.10;99.90
72604;DHT22;60645;56.968;24.196;2024-01-15T09:04:35;0.20;99.90
72604;DHT22;60645;56.968;24.196;2024-01-15T09:07:02;0.30;99.90
72604;DHT22;60645;56.968;24.196;2024-01-15T09:09:29;0.40;99.90
72604;DHT22;60645;56.968;24.196;2024-01-15T09:11:56;0.40;99.90
72604;DHT22;60645;56.968;24.196;2024-01-15T09:14:23;0.40;99.90
72604;DHT22;60645;56.968;24.196;2024-01-15T09:17:04;0.30;99.90
72604;DHT22;60645;56.968;24.196;2024-01-15T09:19:31;0.30;99.90
72604;DHT22;60645;56.968;24.196;2024-01-15T09:21:59;0.30;99.90
72604;DHT22;60645;56.968;24.196;2024-01-15T09:24:26;0.30;99.90
72604;DHT22;60645;56.968;24.196;2024-01-15T09:26:55;0.50;99.90
72604;DHT22;60645;56.968;24.196;2024-01-15T09:29:21;0.60;99.90
72604;DHT22;60645;56.968;24.196;2024-01-15T09:31:50;0.40;99.90
72604;DHT22;60645;56.968;24.196;2024-01-15T09:34:18;0.60;99.90
72604;DHT22;60645;56.968;24.196;2024-01-15T09:36:45;0.50;99.90
72604;DHT22;60645;56.968;24.196;2024-01-15T09:39:12;0.50;99.90
72604;DHT22;60645;56.968;24.196;2024-01-15T09:41:39;0.60;99.90
72604;DHT22;60645;56.968;24.196;2024-01-15T09:44:06;0.70;99.90
72604;DHT22;60645;56.968;24.196;2024-01-15T09:46:36;0.50;99.90
72604;DHT22;60645;56.968;24.196;2024-01-15T09:49:03;0.60;99.90
72604;DHT22;60645;56.968;24.196;2024-01-15T09:51:32;0.70;99.90
72604;DHT22;60645;56.968;24.196;2024-01-15T09:53:58;0.70;99.90
72604;DHT22;60645;56.968;24.196;2024-01-15T09:56:25;0.60;99.90
72604;DHT22;60645;56.968;24.196;2024-01-15T09:58:52;0.60;99.90
72604;DHT22;60645;56.968;24.196;2024-01-15T10:01:20;0.70;99.90
72604;DHT22;60645;56.968;24.196;2024-01-15T10:03:47;0.80;99.90
72604;DHT22;60645;56.968;24.196;2024-01-15T10:06:15;0.50;99.90
72604;DHT22;60645;56.968;24.196;2024-01-15T10:08:48;0.60;99.90
72604;DHT22;60645;56.968;24.196;2024-01-15T10:11:15;0.80;99.90
72604;DHT22;60645;56.968;24.196;2024-01-15T10:13:43;0.90;99.90
72604;DHT22;60645;56.968;24.196;2024-01-15T10:16:11;0.80;99.90
72604;DHT22;60645;56.968;24.196;2024-01-15T10:18:39;0.80;99.90
72604;DHT22;60645;56.968;24.196;2024-01-15T10:21:06;0.80;99.90
72604;DHT22;60645;56.968;24.196;2024-01-15T10:23:33;1.00;99.90
72604;DHT22;60645;56.968;24.196;2024-01-15T10:26:00;1.10;99.90
72604;DHT22;60645;56.968;24.196;2024-01-15T10:28:27;1.10;99.90
72604;DHT22;60645;56.968;24.196;2024-01-15T10:30:59;1.00;99.90
72604;DHT22;60645;56.968;24.196;2024-01-15T10:33:26;1.00;99.90
72604;DHT22;60645;56.968;24.196;2024-01-15T10:35:54;1.00;99.90
72604;DHT22;60645;56.968;24.196;2024-01-15T10:38:24;0.90;99.90
72604;DHT22;60645;56.968;24.196;2024-01-15T10:40:55;0.90;99.90
72604;DHT22;60645;56.968;24.196;2024-01-15T10:43:23;1.00;99.90
72604;DHT22;60645;56.968;24.196;2024-01-15T10:45:54;1.20;99.90
72604;DHT22;60645;56.968;24.196;2024-01-15T10:48:22;1.20;99.90
72604;DHT22;60645;56.968;24.196;2024-01-15T10:50:50;1.20;99.90
72604;DHT22;60645;56.968;24.196;2024-01-15T10:53:17;1.20;99.90
72604;DHT22;60645;56.968;24.196;2024-01-15T10:55:44;1.00;99.90
72604;DHT22;60645;56.968;24.196;2024-01-15T10:58:12;1.10;99.90
72604;DHT22;60645;56.968;24.196;2024-01-15T11:00:40;1.10;99.90
72604;DHT22;60645;56.968;24.196;2024-01-15T11:03:07;1.10;99.90
72604;DHT22;60645;56.968;24.196;2024-01-15T11:05:37;1.40;99.90
72604;DHT22;60645;56.968;24.196;2024-01-15T11:08:08;1.40;99.90
72604;DHT22;60645;56.968;24.196;2024-01-15T11:10:53;1.20;99.90
72604;DHT22;60645;56.968;24.196;2024-01-15T11:18:28;1.20;99.90
72604;DHT22;60645;56.968;24.196;2024-01-15T11:23:54;1.40;99.90
72604;DHT22;60645;56.968;24.196;2024-01-15T11:28:58;1.30;99.90
72604;DHT22;60645;56.968;24.196;2024-01-15T11:34:09;1.10;99.90
72604;DHT22;60645;56.968;24.196;2024-01-15T11:41:55;1.00;99.90
72604;DHT22;60645;56.968;24.196;2024-01-15T11:44:22;1.30;99.90
72604;DHT22;60645;56.968;24.196;2024-01-15T11:47:10;1.50;99.90
72604;DHT22;60645;56.968;24.196;2024-01-15T11:52:15;1.30;99.90
72604;DHT22;60645;56.968;24.196;2024-01-15T11:55:00;1.20;99.90
72604;DHT22;60645;56.968;24.196;2024-01-15T12:00:11;1.10;99.90
72604;DHT22;60645;56.968;24.196;2024-01-15T12:02:42;1.10;99.90
72604;DHT22;60645;56.968;24.196;2024-01-15T12:05:13;1.10;99.90
72604;DHT22;60645;56.968;24.196;2024-01-15T12:07:40;1.20;99.90
72604;DHT22;60645;56.968;24.196;2024-01-15T12:10:11;1.20;99.90
72604;DHT22;60645;56.968;24.196;2024-01-15T12:12:59;1.10;99.90
72604;DHT22;60645;56.968;24.196;2024-01-15T12:15:28;1.10;99.90
72604;DHT22;60645;56.968;24.196;2024-01-15T12:17:57;1.20;99.90
72604;DHT22;60645;56.968;24.196;2024-01-15T12:20:29;1.10;99.90
72604;DHT22;60645;56.968;24.196;2024-01-15T12:22:56;0.90;99.90
72604;DHT22;60645;56.968;24.196;2024-01-15T12:25:29;1.00;99.90
72604;DHT22;60645;56.968;24.196;2024-01-15T12:27:56;1.10;99.90
72604;DHT22;60645;56.968;24.196;2024-01-15T12:30:23;1.20;99.90
72604;DHT22;60645;56.968;24.196;2024-01-15T12:32:52;1.00;99.90
72604;DHT22;60645;56.968;24.196;2024-01-15T12:35:19;1.20;99.90
72604;DHT22;60645;56.968;24.196;2024-01-15T12:37:45;1.10;99.90
72604;DHT22;60645;56.968;24.196;2024-01-15T12:40:18;1.10;99.90
72604;DHT22;60645;56.968;24.196;2024-01-15T12:42:46;1.00;99.90
72604;DHT22;60645;56.968;24.196;2024-01-15T12:45:13;1.00;99.90
72604;DHT22;60645;56.968;24.196;2024-01-15T12:47:40;1.00;99.90
72604;DHT22;60645;56.968;24.196;2024-01-15T12:50:09;0.90;99.90
72604;DHT22;60645;56.968;24.196;2024-01-15T12:52:45;1.20;99.90
72604;DHT22;60645;56.968;24.196;2024-01-15T12:55:13;1.10;99.90
72604;DHT22;60645;56.968;24.196;2024-01-15T12:57:40;1.00;99.90
72604;DHT22;60645;56.968;24.196;2024-01-15T13:00:07;1.00;99.90
72604;DHT22;60645;56.968;24.196;2024-01-15T13:02:39;0.90;99.90
72604;DHT22;60645;56.968;24.196;2024-01-15T13:05:10;1.00;99.90
72604;DHT22;60645;56.968;24.196;2024-01-15T13:07:39;0.90;99.90
72604;DHT22;60645;56.968;24.196;2024-01-15T13:10:06;0.90;99.90
72604;DHT22;60645;56.968;24.196;2024-01-15T13:12:33;0.90;99.90
72604;DHT22;60645;56.968;24.196;2024-01-15T13:15:00;1.00;99.90
72604;DHT22;60645;56.968;24.196;2024-01-15T13:17:30;0.80;99.90
72604;DHT22;60645;56.968;24.196;2024-01-15T13:19:57;0.80;99.90
72604;DHT22;60645;56.968;24.196;2024-01-15T13:22:24;0.80;99.90
72604;DHT22;60645;56.968;24.196;2024-01-15T13:24:56;0.90;99.90
72604;DHT22;60645;56.968;24.196;2024-01-15T13:27:24;1.00;99.90
72604;DHT22;60645;56.968;24.196;2024-01-15T13:29:51;0.70;99.90
72604;DHT22;60645;56.968;24.196;2024-01-15T13:32:24;0.70;99.90
72604;DHT22;60645;56.968;24.196;2024-01-15T13:34:59;0.70;99.90
72604;DHT22;60645;56.968;24.196;2024-01-15T13:37:26;0.80;99.90
72604;DHT22;60645;56.968;24.196;2024-01-15T13:39:54;0.80;99.90
72604;DHT22;60645;56.968;24.196;2024-01-15T13:42:21;0.50;99.90
72604;DHT22;60645;56.968;24.196;2024-01-15T13:44:49;0.70;99.90
72604;DHT22;60645;56.968;24.196;2024-01-15T13:47:16;0.70;99.90
72604;DHT22;60645;56.968;24.196;2024-01-15T13:49:43;0.60;99.90
72604;DHT22;60645;56.968;24.196;2024-01-15T13:52:10;0.70;99.90
72604;DHT22;60645;56.968;24.196;2024-01-15T13:54:37;0.60;99.90
72604;DHT22;60645;56.968;24.196;2024-01-15T13:57:16;0.70;99.90
72604;DHT22;60645;56.968;24.196;2024-01-15T13:59:45;0.50;99.90
72604;DHT22;60645;56.968;24.196;2024-01-15T14:02:12;0.50;99.90
72604;DHT22;60645;56.968;24.196;2024-01-15T14:04:42;0.50;99.90
72604;DHT22;60645;56.968;24.196;2024-01-15T14:07:09;0.50;99.90
72604;DHT22;60645;56.968;24.196;2024-01-15T14:09:36;0.50;99.90
72604;DHT22;60645;56.968;24.196;2024-01-15T14:12:05;0.60;99.90
72604;DHT22;60645;56.968;24.196;2024-01-15T14:14:33;0.60;99.90
72604;DHT22;60645;56.968;24.196;2024-01-15T14:17:00;0.60;99.90
72604;DHT22;60645;56.968;24.196;2024-01-15T14:19:27;0.40;99.90
72604;DHT22;60645;56.968;24.196;2024-01-15T14:21:55;0.50;99.90
72604;DHT22;60645;56.968;24.196;2024-01-15T14:24:22;0.50;99.90
72604;DHT22;60645;56.968;24.196;2024-01-15T14:26:49;0.60;99.90
72604;DHT22;60645;56.968;24.196;2024-01-15T14:29:16;0.70;99.90
72604;DHT22;60645;56.968;24.196;2024-01-15T14:31:45;0.50;99.90
72604;DHT22;60645;56.968;24.196;2024-01-15T14:34:13;0.70;99.90
72604;DHT22;60645;56.968;24.196;2024-01-15T14:36:40;0.70;99.90
72604;DHT22;60645;56.968;24.196;2024-01-15T14:39:08;0.70;99.90
72604;DHT22;60645;56.968;24.196;2024-01-15T14:41:36;0.60;99.90
72604;DHT22;60645;56.968;24.196;2024-01-15T14:44:03;0.50;99.90
72604;DHT22;60645;56.968;24.196;2024-01-15T14:46:30;0.60;99.90
72604;DHT22;60645;56.968;24.196;2024-01-15T14:48:57;0.50;99.90
72604;DHT22;60645;56.968;24.196;2024-01-15T14:51:24;0.50;99.90
72604;DHT22;60645;56.968;24.196;2024-01-15T14:53:51;0.60;99.90
72604;DHT22;60645;56.968;24.196;2024-01-15T14:56:18;0.60;99.90
72604;DHT22;60645;56.968;24.196;2024-01-15T14:58:44;0.70;99.90
72604;DHT22;60645;56.968;24.196;2024-01-15T15:01:12;0.50;99.90
72604;DHT22;60645;56.968;24.196;2024-01-15T15:03:39;0.60;99.90
72604;DHT22;60645;56.968;24.196;2024-01-15T15:06:06;0.70;99.90
72604;DHT22;60645;56.968;24.196;2024-01-15T15:08:36;0.70;99.90
72604;DHT22;60645;56.968;24.196;2024-01-15T15:11:03;0.50;99.90
72604;DHT22;60645;56.968;24.196;2024-01-15T15:13:30;0.60;99.90
72604;DHT22;60645;56.968;24.196;2024-01-15T15:16:10;0.60;99.90
72604;DHT22;60645;56.968;24.196;2024-01-15T15:18:37;0.50;99.90
72604;DHT22;60645;56.968;24.196;2024-01-15T15:21:04;0.70;99.90
72604;DHT22;60645;56.968;24.196;2024-01-15T15:23:31;0.60;99.90
72604;DHT22;60645;56.968;24.196;2024-01-15T15:25:58;0.80;99.90
72604;DHT22;60645;56.968;24.196;2024-01-15T15:28:25;0.50;99.90
72604;DHT22;60645;56.968;24.196;2024-01-15T15:30:52;0.70;99.90
72604;DHT22;60645;56.968;24.196;2024-01-15T15:33:19;0.70;99.90
72604;DHT22;60645;56.968;24.196;2024-01-15T15:35:46;0.50;99.90
72604;DHT22;60645;56.968;24.196;2024-01-15T15:38:14;0.70;99.90
72604;DHT22;60645;56.968;24.196;2024-01-15T15:40:41;0.70;99.90
72604;DHT22;60645;56.968;24.196;2024-01-15T15:43:08;0.70;99.90
72604;DHT22;60645;56.968;24.196;2024-01-15T15:45:35;0.50;99.90
72604;DHT22;60645;56.968;24.196;2024-01-15T15:48:02;0.70;99.90